Time;durP1;ratioP1;P1;durP2;ratioP2;P2;SDS_P1;SDS_P2;PMS_P1;PMS_P2;Temp;Humidity;BMP_temperature;BMP_pressure;BME280_temperature;BME280_humidity;BME280_pressure;Samples;Min_cycle;Max_cycle;Signal;HPM_P1;HPM_P2
2021/03/01 00:01:14;;;;;;;1999.90;999.90;;;;;;;5.30;74.28;103145.94;15756539;28;20744;-63
2021/03/01 00:08:45;;;;;;;1999.90;999.90;;;;;;;5.37;74.88;103132.84;15760886;28;20154;-62
2021/03/01 00:16:18;;;;;;;1999.90;999.90;;;;;;;5.39;74.73;103154.75;15769010;28;20032;-63
2021/03/01 00:23:50;;;;;;;1999.90;999.90;;;;;;;5.44;73.67;103168.75;15723397;28;20121;-63
2021/03/01 00:31:22;;;;;;;1999.90;999.90;;;;;;;5.38;74.75;103169.69;15786534;28;20036;-63
2021/03/01 00:38:54;;;;;;;1999.90;999.90;;;;;;;5.30;74.65;103170.03;15767391;28;20044;-63
2021/03/01 00:46:26;;;;;;;1999.90;999.90;;;;;;;5.33;74.01;103173.19;15790797;28;20052;-64
2021/03/01 00:53:58;;;;;;;1999.90;999.90;;;;;;;5.39;74.02;103176.91;15756058;28;20047;-63
2021/03/01 01:01:34;;;;;;;1999.90;999.90;;;;;;;5.29;74.54;103183.03;15768033;28;20059;-63
2021/03/01 01:09:08;;;;;;;1999.90;999.90;;;;;;;5.53;74.48;103172.84;15749882;28;20153;-63
2021/03/01 01:16:41;;;;;;;1999.90;999.90;;;;;;;5.53;74.02;103164.53;15749881;28;20048;-63
2021/03/01 01:24:13;;;;;;;1999.90;999.90;;;;;;;5.43;74.40;103156.81;15767812;28;20086;-63
2021/03/01 01:31:45;;;;;;;1999.90;999.90;;;;;;;5.32;75.62;103156.81;15770504;28;20063;-63
2021/03/01 01:39:19;;;;;;;1999.90;999.90;;;;;;;5.18;76.23;103142.31;15768936;28;20048;-63
2021/03/01 01:46:53;;;;;;;1999.90;999.90;;;;;;;5.27;75.32;103135.34;15769381;28;20500;-63
2021/03/01 01:54:24;;;;;;;1999.90;999.90;;;;;;;5.16;75.46;103134.25;15750198;28;20090;-63
2021/03/01 02:01:57;;;;;;;1999.90;999.90;;;;;;;5.30;75.32;103118.25;15765281;28;20040;-63
2021/03/01 02:09:38;;;;;;;1999.90;999.90;;;;;;;5.34;75.61;103125.03;15770678;28;20044;-63
2021/03/01 02:17:10;;;;;;;1999.90;999.90;;;;;;;5.38;74.49;103125.38;15767474;28;20459;-63
2021/03/01 02:24:46;;;;;;;1999.90;999.90;;;;;;;5.30;74.95;103123.78;15772836;28;20094;-63
2021/03/01 02:32:19;;;;;;;1999.90;999.90;;;;;;;5.24;74.96;103121.16;15743842;28;20045;-63
2021/03/01 02:39:53;;;;;;;1999.90;999.90;;;;;;;5.33;74.91;103122.50;15785374;28;20135;-63
2021/03/01 02:47:27;;;;;;;1999.90;999.90;;;;;;;5.37;74.43;103123.69;15753165;28;20091;-62
2021/03/01 02:55:00;;;;;;;1999.90;999.90;;;;;;;5.41;73.54;103128.50;15734962;28;20052;-63
2021/03/01 03:02:33;;;;;;;1999.90;999.90;;;;;;;5.38;74.34;103128.16;15724751;28;20044;-62
2021/03/01 03:10:08;;;;;;;1999.90;999.90;;;;;;;5.30;75.48;103128.50;15763904;28;20303;-63
2021/03/01 03:17:41;;;;;;;1999.90;999.90;;;;;;;5.52;73.74;103126.81;15784008;28;20059;-63
2021/03/01 03:25:14;;;;;;;1999.90;999.90;;;;;;;5.62;73.29;103121.53;15712916;22;20189;-58
2021/03/01 03:32:47;;;;;;;1999.90;999.90;;;;;;;5.66;73.55;103135.75;15657826;28;20057;-58
2021/03/01 03:40:25;;;;;;;1999.90;999.90;;;;;;;5.66;73.89;103128.28;15606525;28;20140;-57
2021/03/01 03:48:01;;;;;;;1999.90;999.90;;;;;;;5.82;72.68;103134.16;15633797;28;20038;-58
2021/03/01 03:55:36;;;;;;;1999.90;999.90;;;;;;;5.75;73.25;103135.16;15655507;28;20077;-58
2021/03/01 04:03:11;;;;;;;1999.90;999.90;;;;;;;5.74;73.11;103136.22;15653348;28;20036;-59
2021/03/01 04:10:44;;;;;;;1999.90;999.90;;;;;;;5.68;73.82;103147.44;15644417;28;20068;-58
2021/03/01 04:18:19;;;;;;;1999.90;999.90;;;;;;;5.64;73.44;103157.31;15661487;28;20127;-61
2021/03/01 04:25:53;;;;;;;1999.90;999.90;;;;;;;5.48;73.55;103151.38;15639130;28;20136;-57
2021/03/01 04:33:25;;;;;;;1999.90;999.90;;;;;;;5.65;74.15;103147.91;15665753;28;20091;-61
2021/03/01 04:40:59;;;;;;;1999.90;999.90;;;;;;;5.54;74.17;103162.63;15653551;28;20033;-60
2021/03/01 04:48:31;;;;;;;1999.90;999.90;;;;;;;5.62;73.45;103156.69;15658014;28;20068;-58
2021/03/01 04:56:05;;;;;;;1999.90;999.90;;;;;;;5.83;74.27;103150.53;15624108;28;20482;-57
2021/03/01 05:03:38;;;;;;;1999.90;999.90;;;;;;;5.69;74.04;103151.88;15659571;28;20410;-59
2021/03/01 05:11:11;;;;;;;1999.90;999.90;;;;;;;5.76;73.96;103147.06;15663232;28;20084;-57
2021/03/01 05:18:42;;;;;;;1999.90;999.90;;;;;;;5.60;75.16;103142.25;15641911;28;20254;-57
2021/03/01 05:26:16;;;;;;;1999.90;999.90;;;;;;;5.77;75.07;103149.59;15628005;28;20124;-57
2021/03/01 05:33:47;;;;;;;1999.90;999.90;;;;;;;5.72;75.18;103156.94;15642466;28;20037;-56
2021/03/01 05:41:20;;;;;;;1999.90;999.90;;;;;;;5.71;75.41;103158.84;15655725;28;20198;-56
2021/03/01 05:48:53;;;;;;;1999.90;999.90;;;;;;;5.54;76.13;103171.75;15660760;28;20124;-58
2021/03/01 05:56:26;;;;;;;1999.90;999.90;;;;;;;5.58;75.84;103164.66;15639401;28;20099;-55
2021/03/01 06:03:58;;;;;;;1999.90;999.90;;;;;;;5.69;75.29;103179.59;15649885;28;20052;-57
2021/03/01 06:11:30;;;;;;;1999.90;999.90;;;;;;;5.77;75.61;103180.06;15660385;28;20051;-57
2021/03/01 06:19:01;;;;;;;1999.90;999.90;;;;;;;5.85;74.83;103194.66;15655605;28;20037;-57
2021/03/01 06:26:34;;;;;;;1999.90;999.90;;;;;;;5.97;74.52;103195.53;15637868;28;20123;-59
2021/03/01 06:34:24;;;;;;;1999.90;999.90;;;;;;;6.05;74.73;103197.94;15625288;28;20041;-56
2021/03/01 06:41:57;;;;;;;1999.90;999.90;;;;;;;6.27;73.66;103203.69;15644791;28;20053;-57
2021/03/01 06:49:35;;;;;;;1999.90;999.90;;;;;;;6.38;73.31;103200.06;15660836;28;20045;-57
2021/03/01 06:57:25;;;;;;;1999.90;999.90;;;;;;;6.58;72.67;103203.25;15643264;28;20106;-57
2021/03/01 07:04:57;;;;;;;1999.90;999.90;;;;;;;6.53;72.36;103193.97;15678664;28;20123;-57
2021/03/01 07:12:38;;;;;;;1999.90;999.90;;;;;;;6.47;72.33;103197.75;15661252;28;20041;-55
2021/03/01 07:20:12;;;;;;;1999.90;999.90;;;;;;;6.61;72.13;103196.38;15658916;28;20052;-60
2021/03/01 07:27:44;;;;;;;1999.90;999.90;;;;;;;6.75;72.10;103202.47;15659819;28;20092;-56
2021/03/01 07:35:16;;;;;;;1999.90;999.90;;;;;;;6.49;73.02;103209.44;15663106;28;20040;-58
2021/03/01 07:42:50;;;;;;;1999.90;999.90;;;;;;;6.82;72.37;103203.16;15689875;28;20128;-57
2021/03/01 07:50:33;;;;;;;1999.90;999.90;;;;;;;7.07;71.51;103203.63;15690190;28;20052;-55
2021/03/01 07:58:05;;;;;;;1999.90;999.90;;;;;;;6.94;71.65;103210.34;15688147;28;20521;-57
2021/03/01 08:05:38;;;;;;;1999.90;999.90;;;;;;;7.22;71.08;103220.59;15670205;28;20414;-57
2021/03/01 08:13:11;;;;;;;1999.90;999.90;;;;;;;7.25;70.56;103222.03;15687432;28;20577;-56
2021/03/01 08:21:07;;;;;;;1999.90;999.90;;;;;;;7.43;70.31;103215.41;15690060;28;20056;-60
2021/03/01 08:28:56;;;;;;;1999.90;999.90;;;;;;;7.51;70.40;103224.19;15670090;28;20052;-52
2021/03/01 08:36:29;;;;;;;1999.90;999.90;;;;;;;7.49;70.15;103233.84;15648491;28;20049;-56
2021/03/01 08:44:03;;;;;;;1999.90;999.90;;;;;;;7.89;69.02;103238.38;15702419;28;20053;-58
2021/03/01 08:51:36;;;;;;;1999.90;999.90;;;;;;;7.68;69.44;103237.22;15668300;28;20044;-56
2021/03/01 08:59:21;;;;;;;1999.90;999.90;;;;;;;8.06;68.07;103244.78;15651244;28;20049;-61
2021/03/01 09:06:52;;;;;;;1999.90;999.90;;;;;;;7.96;67.18;103248.25;15684792;28;20358;-59
2021/03/01 09:14:29;;;;;;;1999.90;999.90;;;;;;;8.21;66.04;103258.06;15686547;28;20068;-54
2021/03/01 09:22:01;;;;;;;1999.90;999.90;;;;;;;8.17;63.43;103254.13;15687631;28;20033;-62
2021/03/01 09:29:34;;;;;;;1999.90;999.90;;;;;;;8.22;64.26;103257.81;15683226;28;20413;-61
2021/03/01 09:37:08;;;;;;;;;;;;;;;8.48;63.66;103252.66;15683848;28;20044;-63
2021/03/01 09:44:42;;;;;;;1999.90;999.90;;;;;;;8.51;63.70;103260.47;15683051;28;19920;-61
2021/03/01 09:52:14;;;;;;;1999.90;999.90;;;;;;;8.68;62.83;103270.47;15681711;28;20505;-61
2021/03/01 09:59:46;;;;;;;1999.90;999.90;;;;;;;8.32;63.49;103271.03;15679253;28;20041;-62
2021/03/01 10:07:20;;;;;;;1999.90;999.90;;;;;;;8.63;61.75;103270.38;15681848;28;20036;-61
2021/03/01 10:14:57;;;;;;;1999.90;999.90;;;;;;;8.95;59.35;103262.16;15644422;28;20064;-60
2021/03/01 10:22:30;;;;;;;1999.90;999.90;;;;;;;9.10;59.55;103267.09;15649481;28;20044;-62
2021/03/01 10:30:05;;;;;;;1999.90;999.90;;;;;;;9.15;60.05;103261.56;15674626;28;20106;-61
2021/03/01 10:37:38;;;;;;;1999.90;999.90;;;;;;;9.42;58.73;103269.09;15660991;28;20056;-58
2021/03/01 10:45:15;;;;;;;1999.90;999.90;;;;;;;9.21;59.06;103280.03;15683880;28;20543;-61
2021/03/01 10:52:48;;;;;;;;;;;;;;;9.70;57.68;103279.13;15682342;28;20048;-60
2021/03/01 11:00:21;;;;;;;1999.90;999.90;;;;;;;9.75;59.23;103271.63;15675056;28;20372;-60
2021/03/01 11:07:53;;;;;;;1999.90;999.90;;;;;;;9.02;59.74;103277.84;15636935;28;20045;-62
2021/03/01 11:15:26;;;;;;;1999.90;999.90;;;;;;;9.54;58.73;103267.81;15667013;28;20041;-62
2021/03/01 11:22:57;;;;;;;1999.90;999.90;;;;;;;10.06;57.22;103264.34;15629123;28;20083;-62
2021/03/01 11:30:31;;;;;;;1999.90;999.90;;;;;;;9.70;58.83;103254.88;15658354;28;20440;-62
2021/03/01 11:38:03;;;;;;;1999.90;999.90;;;;;;;9.94;57.85;103249.75;15629068;28;20107;-61
2021/03/01 11:45:36;;;;;;;1999.90;999.90;;;;;;;10.67;55.07;103244.34;15613137;28;20111;-62
2021/03/01 11:53:08;;;;;;;1999.90;999.90;;;;;;;10.62;55.07;103249.91;15644326;28;20046;-61
2021/03/01 12:00:42;;;;;;;1999.90;999.90;;;;;;;11.51;53.42;103240.38;15648298;28;20053;-60
2021/03/01 12:08:15;;;;;;;1999.90;999.90;;;;;;;11.73;52.00;103226.94;15665232;28;20038;-63
2021/03/01 12:15:48;;;;;;;1999.90;999.90;;;;;;;14.31;46.72;103223.00;15610643;28;20046;-63
2021/03/01 12:23:20;;;;;;;1999.90;999.90;;;;;;;14.58;45.33;103214.00;15668037;28;20513;-61
2021/03/01 12:30:53;;;;;;;1999.90;999.90;;;;;;;16.58;42.08;103218.88;15729098;28;20048;-63
2021/03/01 13:15:45;;;;;;;1999.90;999.90;;;;;;;22.03;30.90;103193.59;15667280;28;20043;-60
2021/03/01 14:00:51;;;;;;;1999.90;999.90;;;;;;;12.59;49.29;103133.50;15652478;28;20048;-60
2021/03/01 14:08:23;;;;;;;1999.90;999.90;;;;;;;12.03;48.77;103114.16;15677747;28;20037;-61
2021/03/01 14:15:56;;;;;;;1999.90;999.90;;;;;;;11.80;51.10;103118.44;15661208;28;20060;-60
2021/03/01 14:23:29;;;;;;;1999.90;999.90;;;;;;;11.69;50.14;103110.31;15668302;28;20033;-61
2021/03/01 14:31:02;;;;;;;1999.90;999.90;;;;;;;11.85;50.63;103115.63;15679953;28;20550;-62
2021/03/01 14:38:33;;;;;;;1999.90;999.90;;;;;;;11.76;50.58;103117.28;15667010;28;20125;-61
2021/03/01 14:46:06;;;;;;;1999.90;999.90;;;;;;;11.71;51.39;103116.47;15648946;28;20072;-62
2021/03/01 14:53:41;;;;;;;1999.90;999.90;;;;;;;11.32;53.05;103105.88;15658115;28;20497;-62
2021/03/01 15:01:14;;;;;;;1999.90;999.90;;;;;;;11.20;52.64;103091.34;15658040;28;20044;-62
2021/03/01 15:08:46;;;;;;;1999.90;999.90;;;;;;;11.05;53.34;103089.41;15674653;28;20060;-61
2021/03/01 15:16:18;;;;;;;1999.90;999.90;;;;;;;10.88;53.75;103092.47;15669215;28;20034;-60
2021/03/01 15:23:50;;;;;;;1999.90;999.90;;;;;;;11.02;53.87;103091.91;15650210;23;20144;-52
2021/03/01 15:31:23;;;;;;;1999.90;999.90;;;;;;;10.66;54.61;103080.72;15536284;28;20123;-55
2021/03/01 15:38:55;;;;;;;1999.90;999.90;;;;;;;10.46;55.25;103084.28;15569792;28;20092;-59
2021/03/01 15:46:27;;;;;;;1999.90;999.90;;;;;;;10.53;55.31;103087.66;15559832;28;20061;-59
2021/03/01 15:53:59;;;;;;;1999.90;999.90;;;;;;;10.25;55.80;103080.59;15547331;28;20083;-58
2021/03/01 16:01:32;;;;;;;1999.90;999.90;;;;;;;10.22;55.93;103083.09;15558125;28;20199;-52
2021/03/01 16:09:03;;;;;;;1999.90;999.90;;;;;;;10.00;56.44;103089.66;15519290;28;20139;-51
2021/03/01 16:16:36;;;;;;;1999.90;999.90;;;;;;;10.07;56.82;103100.56;15558802;28;20049;-53
2021/03/01 16:24:09;;;;;;;1999.90;999.90;;;;;;;9.91;56.99;103098.84;15576456;28;20576;-53
2021/03/01 16:31:41;;;;;;;1999.90;999.90;;;;;;;9.73;57.60;103095.38;15597906;28;20056;-53
2021/03/01 16:39:13;;;;;;;1999.90;999.90;;;;;;;9.48;57.71;103100.78;15603216;28;20080;-58
2021/03/01 16:46:46;;;;;;;1999.90;999.90;;;;;;;9.36;57.89;103100.97;15542909;28;20054;-55
2021/03/01 16:54:18;;;;;;;1999.90;999.90;;;;;;;9.12;58.32;103103.28;15569510;28;20447;-56
2021/03/01 17:01:52;;;;;;;1999.90;999.90;;;;;;;8.93;59.28;103096.44;15603985;28;20095;-58
2021/03/01 17:09:26;;;;;;;1999.90;999.90;;;;;;;8.65;59.58;103100.34;15568068;28;20045;-58
2021/03/01 17:17:04;;;;;;;1999.90;999.90;;;;;;;8.51;60.04;103094.34;15540552;28;20171;-56
2021/03/01 17:24:36;;;;;;;1999.90;999.90;;;;;;;8.11;61.03;103098.28;15548551;28;20113;-55
2021/03/01 17:32:09;;;;;;;1999.90;999.90;;;;;;;7.88;61.60;103098.53;15548568;28;20153;-57
2021/03/01 17:39:42;;;;;;;1999.90;999.90;;;;;;;7.62;62.18;103086.22;15553735;28;20400;-52
2021/03/01 17:47:18;;;;;;;1999.90;999.90;;;;;;;7.53;62.46;103077.50;15572736;28;20410;-58
2021/03/01 17:55:03;;;;;;;1999.90;999.90;;;;;;;7.57;62.50;103082.53;15584653;28;20049;-51
2021/03/01 18:02:39;;;;;;;1999.90;999.90;;;;;;;7.23;63.32;103077.84;15555965;28;20045;-54
2021/03/01 18:10:13;;;;;;;1999.90;999.90;;;;;;;7.05;63.65;103088.38;15612927;28;20045;-61
2021/03/01 18:17:46;;;;;;;1999.90;999.90;;;;;;;6.84;64.77;103088.03;15578621;28;20042;-57
2021/03/01 18:25:21;;;;;;;1999.90;999.90;;;;;;;6.72;64.92;103076.16;15571631;28;20049;-52
2021/03/01 18:33:04;;;;;;;1999.90;999.90;;;;;;;6.49;65.16;103076.28;15576264;28;20120;-56
2021/03/01 18:40:40;;;;;;;1999.90;999.90;;;;;;;6.36;65.75;103080.19;15566371;28;20372;-53
2021/03/01 18:48:19;;;;;;;1999.90;999.90;;;;;;;6.25;65.98;103081.06;15541862;28;20054;-57
2021/03/01 18:55:51;;;;;;;1999.90;999.90;;;;;;;6.06;66.98;103088.72;15573275;28;20060;-54
2021/03/01 19:03:23;;;;;;;1999.90;999.90;;;;;;;5.73;67.25;103090.22;15529113;28;20046;-54
2021/03/01 19:10:55;;;;;;;1999.90;999.90;;;;;;;5.67;67.61;103093.09;15531405;28;20053;-56
2021/03/01 19:18:29;;;;;;;1999.90;999.90;;;;;;;5.48;67.71;103086.84;15566272;28;20048;-57
2021/03/01 19:26:01;;;;;;;1999.90;999.90;;;;;;;5.35;67.39;103092.63;15592957;28;20121;-54
2021/03/01 19:33:33;;;;;;;1999.90;999.90;;;;;;;5.13;68.54;103090.47;15551826;28;20459;-53
2021/03/01 19:41:05;;;;;;;1999.90;999.90;;;;;;;5.13;68.10;103097.91;15571924;28;20042;-55
2021/03/01 19:48:37;;;;;;;1999.90;999.90;;;;;;;4.88;68.38;103100.88;15549166;28;20044;-59
2021/03/01 19:56:09;;;;;;;1999.90;999.90;;;;;;;4.85;68.09;103082.81;15519623;28;20049;-59
2021/03/01 20:03:41;;;;;;;1999.90;999.90;;;;;;;4.77;68.73;103094.22;15546826;28;20107;-51
2021/03/01 20:11:12;;;;;;;1999.90;999.90;;;;;;;4.56;69.09;103083.69;15546983;28;20477;-53
2021/03/01 20:18:45;;;;;;;1999.90;999.90;;;;;;;4.49;68.91;103088.50;15557592;28;20053;-54
2021/03/01 20:26:18;;;;;;;1999.90;999.90;;;;;;;4.34;69.02;103088.91;15571025;28;20132;-53
2021/03/01 20:33:52;;;;;;;1999.90;999.90;;;;;;;4.11;69.44;103086.88;15557825;28;20502;-51
2021/03/01 20:41:24;;;;;;;1999.90;999.90;;;;;;;4.05;69.40;103098.84;15550148;28;20057;-55
2021/03/01 20:48:57;;;;;;;1999.90;999.90;;;;;;;4.00;69.28;103099.53;15534383;28;20050;-56
2021/03/01 20:56:31;;;;;;;1999.90;999.90;;;;;;;4.00;69.10;103098.72;15575404;28;20499;-52
2021/03/01 21:04:05;;;;;;;1999.90;999.90;;;;;;;3.75;69.73;103087.72;15560203;28;20465;-54
2021/03/01 21:11:38;;;;;;;1999.90;999.90;;;;;;;3.70;69.56;103079.28;15571487;28;20133;-53
2021/03/01 21:19:13;;;;;;;1999.90;999.90;;;;;;;3.51;70.16;103085.88;15570364;28;20463;-56
2021/03/01 21:26:46;;;;;;;1999.90;999.90;;;;;;;3.50;70.48;103092.47;15689301;23;20113;-63
2021/03/01 21:34:20;;;;;;;1999.90;999.90;;;;;;;3.53;69.75;103092.00;15745333;28;20044;-60
2021/03/01 21:41:54;;;;;;;1999.90;999.90;;;;;;;3.52;70.09;103088.41;15746080;28;20044;-58
2021/03/01 21:49:28;;;;;;;1999.90;999.90;;;;;;;3.45;70.22;103087.66;15743953;28;20040;-62
2021/03/01 21:57:04;;;;;;;1999.90;999.90;;;;;;;3.21;69.63;103077.47;15725123;28;20493;-61
2021/03/01 22:04:47;;;;;;;1999.90;999.90;;;;;;;3.26;70.40;103081.25;15744700;28;20135;-61
2021/03/01 22:12:19;;;;;;;1999.90;999.90;;;;;;;2.81;71.66;103086.06;15744334;28;20087;-61
2021/03/01 22:19:52;;;;;;;1999.90;999.90;;;;;;;3.09;70.72;103091.16;15743447;28;20121;-62
2021/03/01 22:27:25;;;;;;;1999.90;999.90;;;;;;;3.00;70.29;103085.06;15749096;28;20043;-62
2021/03/01 22:35:02;;;;;;;1999.90;999.90;;;;;;;3.01;70.23;103096.94;15784747;28;20036;-63
2021/03/01 22:42:37;;;;;;;1999.90;999.90;;;;;;;2.90;70.13;103080.03;15780833;28;20762;-63
2021/03/01 22:50:14;;;;;;;1999.90;999.90;;;;;;;2.85;70.46;103087.31;15761835;28;20048;-64
2021/03/01 22:57:48;;;;;;;1999.90;999.90;;;;;;;2.68;70.62;103086.16;15746823;28;20530;-63
2021/03/01 23:05:20;;;;;;;1999.90;999.90;;;;;;;2.58;70.57;103087.50;15768095;28;20128;-62
2021/03/01 23:12:55;;;;;;;1999.90;999.90;;;;;;;2.69;69.84;103085.94;15778676;28;20071;-63
2021/03/01 23:20:27;;;;;;;1999.90;999.90;;;;;;;2.51;70.73;103086.72;15760515;28;20514;-62
2021/03/01 23:27:59;;;;;;;1999.90;999.90;;;;;;;2.52;70.46;103079.28;15766329;28;20123;-63
2021/03/01 23:35:31;;;;;;;1999.90;999.90;;;;;;;2.45;71.17;103073.81;15769319;28;20040;-63
2021/03/01 23:43:05;;;;;;;1999.90;999.90;;;;;;;2.27;70.73;103081.94;15776113;28;20404;-63
2021/03/01 23:50:38;;;;;;;1999.90;999.90;;;;;;;2.37;70.46;103081.47;15768167;28;20044;-63
2021/03/01 23:58:11;;;;;;;1999.90;999.90;;;;;;;2.26;71.00;103074.75;15739127;28;20060;-63
